Time;durP1;ratioP1;P1;durP2;ratioP2;P2;SDS_P1;SDS_P2;PMS_P1;PMS_P2;Temp;Humidity;BMP_temperature;BMP_pressure;BME280_temperature;BME280_humidity;BME280_pressure;Samples;Min_cycle;Max_cycle;Signal;HPM_P1;HPM_P2
2023/01/04 00:02:20;;;;;;;9.55;5.90;;;;;;;3.98;87.12;97267.44;5052606;28;20049;-64
2023/01/04 00:04:47;;;;;;;6.63;5.35;;;;;;;3.99;86.71;97269.16;5052374;28;20045;-63
2023/01/04 00:07:15;;;;;;;11.55;5.45;;;;;;;3.96;86.12;97271.75;5052330;28;20444;-63
2023/01/04 00:09:43;;;;;;;6.95;5.43;;;;;;;3.94;87.02;97276.03;5052269;28;20105;-65
2023/01/04 00:12:10;;;;;;;7.75;5.45;;;;;;;3.91;87.28;97273.44;5052128;28;20505;-64
2023/01/04 00:14:39;;;;;;;6.53;4.93;;;;;;;3.96;86.67;97265.69;5052190;28;20045;-64
2023/01/04 00:17:06;;;;;;;10.82;5.65;;;;;;;3.90;86.54;97267.44;5052073;28;20486;-61
2023/01/04 00:19:33;;;;;;;9.70;5.88;;;;;;;3.91;86.54;97268.28;5051997;28;20428;-63
2023/01/04 00:22:01;;;;;;;8.77;6.18;;;;;;;3.89;86.50;97267.44;5052148;28;20131;-64
2023/01/04 00:24:28;;;;;;;9.50;5.90;;;;;;;3.78;86.64;97265.69;5052138;28;20052;-64
2023/01/04 00:26:55;;;;;;;10.20;6.00;;;;;;;3.65;86.75;97263.97;5052149;28;20056;-63
2023/01/04 00:29:22;;;;;;;11.40;6.38;;;;;;;3.59;86.76;97261.34;5052224;28;20126;-62
2023/01/04 00:31:51;;;;;;;10.98;6.30;;;;;;;3.63;87.09;97255.31;5051947;28;20052;-64
2023/01/04 00:34:19;;;;;;;7.88;6.22;;;;;;;3.70;87.40;97261.38;5051953;28;20048;-66
2023/01/04 00:36:46;;;;;;;13.70;7.20;;;;;;;3.67;87.53;97265.69;5051850;28;20406;-62
2023/01/04 00:39:15;;;;;;;11.88;7.03;;;;;;;3.69;87.35;97264.81;5051742;28;20383;-63
2023/01/04 00:41:45;;;;;;;9.13;6.78;;;;;;;3.63;87.56;97274.31;5051445;28;20057;-63
2023/01/04 00:44:13;;;;;;;11.18;7.63;;;;;;;3.65;88.54;97264.81;5051761;28;20098;-65
2023/01/04 00:46:42;;;;;;;10.82;7.18;;;;;;;3.68;88.66;97258.78;5051620;28;20053;-63
2023/01/04 00:49:12;;;;;;;14.75;9.07;;;;;;;3.79;90.65;97269.13;5051591;28;20122;-64
2023/01/04 00:51:41;;;;;;;11.93;8.73;;;;;;;3.95;91.42;97261.38;5051542;28;20049;-64
2023/01/04 00:54:11;;;;;;;11.68;7.75;;;;;;;4.02;90.04;97274.34;5050674;28;20452;-63
2023/01/04 00:56:38;;;;;;;9.75;6.93;;;;;;;4.02;88.66;97266.56;5051276;28;20098;-64
2023/01/04 00:59:06;;;;;;;11.43;7.57;;;;;;;4.02;87.89;97268.28;5051422;28;20041;-65
2023/01/04 01:01:35;;;;;;;12.55;7.70;;;;;;;4.01;87.85;97277.78;5051391;28;20049;-62
2023/01/04 01:04:04;;;;;;;12.98;7.60;;;;;;;4.00;87.31;97282.97;5051259;28;20093;-65
2023/01/04 01:06:34;;;;;;;10.25;6.75;;;;;;;3.97;87.28;97283.81;5051358;28;20059;-64
2023/01/04 01:09:02;;;;;;;12.98;8.00;;;;;;;3.97;87.21;97289.00;5051254;28;20078;-64
2023/01/04 01:11:30;;;;;;;9.23;7.45;;;;;;;4.01;87.55;97279.50;5051322;28;20045;-65
2023/01/04 01:13:58;;;;;;;8.93;6.68;;;;;;;3.95;86.87;97280.38;5051194;28;20045;-62
2023/01/04 01:16:25;;;;;;;14.23;8.20;;;;;;;3.80;87.40;97276.06;5051115;28;20045;-64
2023/01/04 01:18:54;;;;;;;10.05;7.18;;;;;;;3.83;87.93;97281.25;5051277;28;20084;-63
2023/01/04 01:21:25;;;;;;;12.27;8.23;;;;;;;3.88;89.69;97273.44;5051021;28;20049;-66
2023/01/04 01:23:55;;;;;;;12.63;8.48;;;;;;;3.91;90.65;97274.31;5050966;28;20757;-62
2023/01/04 01:26:24;;;;;;;10.93;6.73;;;;;;;3.92;90.19;97270.88;5050982;28;20140;-61
2023/01/04 01:28:52;;;;;;;13.10;8.18;;;;;;;3.85;89.47;97268.31;5050983;28;20055;-64
2023/01/04 01:31:21;;;;;;;13.43;8.75;;;;;;;3.79;89.22;97275.19;5050941;28;20060;-64
2023/01/04 01:33:50;;;;;;;10.85;8.07;;;;;;;3.82;89.25;97283.81;5050866;28;20045;-67
2023/01/04 01:36:18;;;;;;;13.30;7.90;;;;;;;3.87;88.61;97282.09;5050965;28;20141;-64
2023/01/04 01:38:45;;;;;;;12.43;7.45;;;;;;;3.87;88.76;97279.50;5050823;28;20053;-64
2023/01/04 01:41:19;;;;;;;13.57;7.78;;;;;;;3.84;88.35;97275.19;5050376;28;20132;-65
2023/01/04 01:43:50;;;;;;;13.07;7.53;;;;;;;3.82;87.75;97276.91;5050895;28;20041;-65
2023/01/04 01:46:22;;;;;;;8.73;6.97;;;;;;;3.81;87.91;97277.78;5050816;28;20053;-66
2023/01/04 01:48:51;;;;;;;12.30;7.30;;;;;;;3.83;88.82;97273.47;5050697;28;20052;-63
2023/01/04 01:51:19;;;;;;;10.10;7.90;;;;;;;3.79;88.69;97272.59;5050694;28;20391;-62
2023/01/04 01:53:52;;;;;;;13.07;8.30;;;;;;;3.80;88.55;97273.47;5050555;28;20507;-65
2023/01/04 01:56:21;;;;;;;14.32;7.93;;;;;;;3.85;88.29;97276.06;5050518;28;20052;-61
2023/01/04 01:58:53;;;;;;;18.05;13.55;;;;;;;3.82;87.74;97270.88;5050511;27;20049;-62
2023/01/04 02:01:21;;;;;;;12.38;9.50;;;;;;;3.72;87.21;97268.28;5050508;28;20134;-64
2023/01/04 02:03:48;;;;;;;12.43;8.18;;;;;;;3.75;87.48;97263.09;5050507;28;20045;-63
2023/01/04 02:06:21;;;;;;;13.82;8.25;;;;;;;3.64;87.32;97257.91;5050048;28;20087;-60
2023/01/04 02:08:49;;;;;;;15.30;8.32;;;;;;;3.62;87.78;97263.94;5050414;28;20045;-66
2023/01/04 02:11:16;;;;;;;14.02;8.00;;;;;;;3.64;88.79;97270.84;5050416;28;20053;-63
2023/01/04 02:16:40;;;;;;;21.23;10.73;;;;;;;3.71;89.05;97279.50;5050388;28;20055;-62
2023/01/04 02:19:34;;;;;;;18.15;11.30;;;;;;;3.73;88.61;97279.50;5050322;28;20049;-64
2023/01/04 02:22:32;;;;;;;16.75;10.48;;;;;;;3.71;88.79;97284.69;5050187;28;20092;-64
2023/01/04 02:25:25;;;;;;;19.15;12.75;;;;;;;3.72;88.56;97281.22;5050154;28;20057;-63
2023/01/04 02:27:58;;;;;;;18.95;10.35;;;;;;;3.67;89.58;97275.16;5047729;28;20048;-61
2023/01/04 02:30:53;;;;;;;12.32;8.38;;;;;;;3.65;89.17;97276.91;5050254;28;20478;-62
2023/01/04 02:33:33;;;;;;;14.95;8.38;;;;;;;3.62;88.71;97285.53;5050040;28;20045;-65
2023/01/04 02:36:08;;;;;;;17.27;10.40;;;;;;;3.56;89.08;97284.63;5050115;28;20048;-61
2023/01/04 02:38:43;;;;;;;13.20;8.77;;;;;;;3.55;89.68;97278.59;5050115;28;20084;-63
2023/01/04 02:41:22;;;;;;;11.38;8.23;;;;;;;3.49;89.07;97276.03;5049709;28;20057;-63
2023/01/04 02:46:45;;;;;;;16.50;10.77;;;;;;;3.41;89.91;97282.00;5050007;28;20109;-62
2023/01/04 02:52:12;;;;;;;18.33;11.35;;;;;;;3.43;90.87;97273.41;5027988;28;20053;-63
2023/01/04 02:54:40;;;;;;;15.65;10.85;;;;;;;3.38;91.04;97274.28;5028047;28;20050;-64
2023/01/04 02:57:26;;;;;;;14.48;7.97;;;;;;;3.30;91.48;97270.78;5037736;28;20052;-63
2023/01/04 03:00:10;;;;;;;12.27;9.05;;;;;;;3.54;95.90;97272.56;5049755;28;20130;-65
2023/01/04 03:08:37;;;;;;;11.63;6.93;;;;;;;3.48;92.25;97269.09;5049751;28;20052;-65
2023/01/04 03:12:30;;;;;;;16.88;8.95;;;;;;;3.46;92.35;97269.09;5049585;28;20101;-64
2023/01/04 03:13:59;;;;;;;18.50;11.10;;;;;;;3.58;93.57;97275.16;5049488;28;20136;-63
2023/01/04 03:16:27;;;;;;;15.43;10.43;;;;;;;3.78;96.13;97273.47;5049455;28;20049;-63
2023/01/04 03:19:03;;;;;;;14.10;9.57;;;;;;;3.91;94.45;97270.88;5051703;28;20491;-62
2023/01/04 03:21:32;;;;;;;19.33;10.50;;;;;;;3.91;93.23;97273.44;5052815;28;20428;-64
2023/01/04 03:35:26;;;;;;;14.20;8.90;;;;;;;3.72;89.03;97277.75;5052932;28;20550;-62
2023/01/04 03:49:25;;;;;;;10.32;7.10;;;;;;;3.53;88.04;97281.16;5052732;28;20052;-64
2023/01/04 03:51:57;;;;;;;15.70;10.07;;;;;;;3.47;88.03;97280.31;5052614;28;20080;-64
2023/01/04 03:54:29;;;;;;;16.25;10.07;;;;;;;3.42;88.46;97285.47;5052492;28;20100;-66
2023/01/04 03:56:57;;;;;;;15.75;9.73;;;;;;;3.43;88.33;97282.00;5052513;28;20498;-62
2023/01/04 03:59:25;;;;;;;13.13;8.60;;;;;;;3.43;87.97;97282.00;5052519;28;20458;-65
2023/01/04 04:01:53;;;;;;;13.18;6.70;;;;;;;3.39;87.78;97285.47;5052218;28;20055;-64
2023/01/04 04:09:51;;;;;;;11.85;7.53;;;;;;;3.28;87.35;97303.53;5052370;28;20186;-62
2023/01/04 04:12:18;;;;;;;14.32;7.93;;;;;;;3.29;87.81;97300.09;5052182;28;20074;-64
2023/01/04 04:14:45;;;;;;;11.95;8.07;;;;;;;3.27;87.32;97294.94;5052265;28;20136;-62
2023/01/04 04:17:12;;;;;;;12.27;8.15;;;;;;;3.29;87.12;97310.44;5052153;28;20049;-62
2023/01/04 04:19:39;;;;;;;12.25;7.95;;;;;;;3.15;87.15;97308.69;5052147;28;20057;-65
2023/01/04 04:22:08;;;;;;;11.63;7.32;;;;;;;3.12;86.95;97307.78;5052012;28;20105;-63
2023/01/04 04:24:35;;;;;;;13.40;7.60;;;;;;;3.08;87.45;97313.81;5052117;28;20048;-63
2023/01/04 04:27:02;;;;;;;25.48;12.90;;;;;;;3.03;86.53;97314.66;5052127;28;20060;-66
2023/01/04 04:29:29;;;;;;;28.85;13.45;;;;;;;3.02;86.98;97307.78;5051775;28;20041;-64
2023/01/04 04:31:56;;;;;;;20.17;10.43;;;;;;;2.95;86.63;97321.50;5051954;28;20127;-65
2023/01/04 04:34:23;;;;;;;12.18;7.78;;;;;;;2.79;86.75;97315.38;5051891;28;20465;-63
2023/01/04 04:36:50;;;;;;;12.20;7.45;;;;;;;2.78;88.12;97319.72;5051926;28;20076;-64
2023/01/04 04:39:19;;;;;;;15.82;8.50;;;;;;;2.77;88.60;97320.53;5051902;28;20152;-65
2023/01/04 04:41:45;;;;;;;25.70;10.45;;;;;;;2.71;88.81;97324.84;5051586;28;20095;-65
2023/01/04 04:44:14;;;;;;;22.88;11.35;;;;;;;2.69;90.02;97318.78;5051768;28;20055;-62
2023/01/04 04:46:41;;;;;;;16.85;11.15;;;;;;;2.72;90.76;97318.78;5051698;28;20140;-63
2023/01/04 04:49:12;;;;;;;21.77;10.75;;;;;;;2.78;91.16;97324.88;5051607;28;20069;-65
2023/01/04 04:51:40;;;;;;;241.35;161.30;;;;;;;2.83;90.46;97330.06;5051629;28;20045;-66
2023/01/04 04:54:09;;;;;;;33.28;20.45;;;;;;;2.80;90.54;97329.19;5051574;28;20056;-62
2023/01/04 04:56:38;;;;;;;34.13;18.48;;;;;;;2.93;91.59;97335.28;5051507;28;20049;-64
2023/01/04 04:59:07;;;;;;;28.35;13.68;;;;;;;2.89;90.17;97329.25;5051569;28;20041;-64
2023/01/04 05:01:35;;;;;;;18.75;11.38;;;;;;;2.88;89.66;97330.06;5051327;28;20547;-65
2023/01/04 05:04:02;;;;;;;23.08;10.90;;;;;;;2.78;88.88;97324.88;5051359;28;20083;-65
2023/01/04 05:06:29;;;;;;;26.75;11.15;;;;;;;2.83;89.03;97339.53;5051331;28;20045;-65
2023/01/04 05:08:57;;;;;;;27.38;14.57;;;;;;;2.78;89.67;97342.09;5051249;28;20045;-65
2023/01/04 05:14:06;;;;;;;24.13;10.20;;;;;;;2.65;89.79;97342.00;5051087;28;20052;-63
2023/01/04 05:16:33;;;;;;;27.27;17.25;;;;;;;2.67;90.01;97354.09;5051122;28;20045;-65
2023/01/04 05:19:01;;;;;;;18.90;10.05;;;;;;;2.67;90.90;97351.50;5051086;28;20045;-65
2023/01/04 05:21:29;;;;;;;31.85;14.10;;;;;;;2.71;90.67;97354.09;5051090;28;20049;-63
2023/01/04 05:23:56;;;;;;;24.88;12.57;;;;;;;2.68;90.63;97353.22;5051106;28;20076;-64
2023/01/04 05:26:25;;;;;;;25.10;12.38;;;;;;;2.73;89.86;97354.09;5051053;28;20045;-65
2023/01/04 05:28:53;;;;;;;21.60;11.77;;;;;;;2.70;89.53;97352.38;5051051;28;20085;-61
2023/01/04 05:31:21;;;;;;;28.75;12.13;;;;;;;2.76;89.92;97351.53;5051033;28;20049;-63
2023/01/04 05:33:48;;;;;;;24.15;13.57;;;;;;;2.75;89.63;97358.47;5050911;28;20056;-64
2023/01/04 05:36:16;;;;;;;26.85;14.98;;;;;;;2.73;89.36;97360.16;5050964;28;20049;-63
2023/01/04 05:38:43;;;;;;;29.95;15.05;;;;;;;2.75;89.57;97357.59;5050789;28;20052;-62
2023/01/04 05:43:51;;;;;;;17.95;11.45;;;;;;;2.73;89.53;97357.56;5050662;28;20045;-63
2023/01/04 05:46:18;;;;;;;13.32;9.23;;;;;;;2.72;88.71;97354.97;5050910;28;20410;-62
2023/01/04 05:48:47;;;;;;;16.02;8.65;;;;;;;2.66;89.01;97355.81;5050748;28;20541;-62
2023/01/04 05:51:14;;;;;;;15.82;9.98;;;;;;;2.67;88.77;97357.53;5050671;28;20066;-65
2023/01/04 05:53:41;;;;;;;15.13;9.75;;;;;;;2.69;88.92;97366.16;5050739;28;20444;-63
2023/01/04 05:56:08;;;;;;;19.17;10.38;;;;;;;2.73;89.10;97362.75;5050640;28;20089;-62
2023/01/04 05:58:36;;;;;;;17.40;10.30;;;;;;;2.81;88.62;97370.53;5050963;28;20105;-62
2023/01/04 06:01:03;;;;;;;25.20;17.65;;;;;;;2.78;88.63;97373.13;5050532;28;20136;-64
2023/01/04 06:03:30;;;;;;;23.20;11.38;;;;;;;2.77;88.87;97367.06;5050448;28;20526;-64
2023/01/04 06:05:58;;;;;;;24.60;13.10;;;;;;;2.85;88.99;97361.94;5050558;28;20084;-61
2023/01/04 06:08:26;;;;;;;20.67;16.15;;;;;;;2.83;89.03;97370.56;5050495;28;20128;-61
2023/01/04 06:10:54;;;;;;;19.35;11.45;;;;;;;2.82;89.32;97367.09;5050527;28;20045;-65
2023/01/04 06:13:21;;;;;;;20.10;10.18;;;;;;;2.81;89.51;97373.13;5050296;28;20045;-63
2023/01/04 06:15:48;;;;;;;27.30;12.75;;;;;;;2.82;90.47;97389.47;5050412;28;20080;-62
2023/01/04 06:18:15;;;;;;;20.25;12.25;;;;;;;2.83;90.45;97383.47;5050410;28;20080;-62
2023/01/04 06:20:43;;;;;;;13.45;9.90;;;;;;;2.91;90.43;97386.97;5050268;28;20116;-64
2023/01/04 06:23:12;;;;;;;22.48;14.40;;;;;;;2.75;90.31;97376.53;5050128;28;20136;-65
2023/01/04 06:25:39;;;;;;;38.35;21.83;;;;;;;3.07;94.29;97390.50;5050222;28;20550;-65
2023/01/04 06:28:06;;;;;;;34.45;22.50;;;;;;;3.65;96.93;97396.78;5050044;28;20053;-63
2023/01/04 06:30:35;;;;;;;21.27;12.82;;;;;;;4.77;95.66;97385.69;5049988;28;20051;-64
2023/01/04 06:33:02;;;;;;;13.77;9.95;;;;;;;5.91;85.28;97397.41;5050178;28;20049;-61
2023/01/04 06:35:29;;;;;;;12.43;8.30;;;;;;;7.24;80.02;97394.63;5050220;28;20052;-65
2023/01/04 06:37:56;;;;;;;7.95;5.80;;;;;;;8.62;72.54;97396.28;5050053;28;20049;-64
2023/01/04 06:40:24;;;;;;;11.07;6.43;;;;;;;9.70;63.05;97399.53;5050030;28;20414;-63
2023/01/04 06:42:52;;;;;;;9.70;6.20;;;;;;;10.74;60.09;97404.19;5049663;28;20467;-66
2023/01/04 06:45:19;;;;;;;9.05;6.38;;;;;;;11.53;54.98;97403.88;5049885;28;20105;-65
2023/01/04 06:47:47;;;;;;;8.00;5.20;;;;;;;12.43;52.28;97410.06;5049802;28;20045;-65
2023/01/04 06:50:15;;;;;;;7.15;5.75;;;;;;;13.37;50.28;97415.69;5049870;28;20049;-66
2023/01/04 06:52:42;;;;;;;7.70;4.72;;;;;;;14.13;47.90;97414.72;5050323;28;20091;-65
2023/01/04 06:55:10;;;;;;;7.93;4.45;;;;;;;14.76;45.00;97416.63;5053430;28;20094;-64
2023/01/04 06:57:39;;;;;;;5.63;4.32;;;;;;;15.42;45.15;97413.91;5053347;28;20102;-62
2023/01/04 07:00:07;;;;;;;9.50;4.35;;;;;;;16.17;42.91;97426.44;5053355;28;20045;-64
2023/01/04 07:02:35;;;;;;;6.15;4.18;;;;;;;16.84;41.41;97412.69;5053317;28;20076;-63
2023/01/04 07:05:02;;;;;;;6.10;4.55;;;;;;;17.38;40.72;97409.16;5053279;28;20064;-67
2023/01/04 07:07:30;;;;;;;6.95;4.72;;;;;;;18.05;40.69;97408.28;5053144;28;20052;-66
2023/01/04 07:09:57;;;;;;;7.53;4.95;;;;;;;18.43;39.34;97417.69;5053149;28;20425;-64
2023/01/04 07:12:24;;;;;;;9.05;4.60;;;;;;;18.96;38.72;97423.63;5053102;28;20479;-65
2023/01/04 07:14:55;;;;;;;5.80;4.63;;;;;;;19.13;38.54;97427.94;5052996;28;20502;-63
2023/01/04 07:17:23;;;;;;;4.43;4.03;;;;;;;19.51;37.22;97419.50;5052953;28;20494;-65
2023/01/04 07:19:50;;;;;;;7.72;4.20;;;;;;;20.06;36.32;97424.19;5052978;28;20049;-63
2023/01/04 07:22:18;;;;;;;5.47;4.20;;;;;;;20.35;35.41;97424.16;5052871;28;20053;-66
2023/01/04 07:24:46;;;;;;;6.30;4.15;;;;;;;20.76;35.47;97416.22;5052810;28;20460;-66
2023/01/04 07:27:13;;;;;;;5.95;4.30;;;;;;;21.34;33.83;97426.59;5053013;28;20064;-64
2023/01/04 07:29:43;;;;;;;4.90;4.40;;;;;;;21.72;33.63;97427.56;5052814;28;20097;-65
2023/01/04 07:32:12;;;;;;;7.55;5.40;;;;;;;21.92;32.97;97422.69;5052762;28;20064;-63
2023/01/04 07:34:40;;;;;;;6.60;5.03;;;;;;;22.36;32.64;97415.13;5052757;28;20132;-66
2023/01/04 07:37:09;;;;;;;7.47;5.03;;;;;;;22.86;31.98;97419.56;5052876;28;20049;-66
2023/01/04 07:39:36;;;;;;;6.82;4.75;;;;;;;23.50;31.13;97409.47;5052794;28;20105;-64
2023/01/04 07:42:03;;;;;;;7.60;4.90;;;;;;;23.71;30.97;97414.94;5052613;28;20143;-65
2023/01/04 07:44:30;;;;;;;10.00;4.75;;;;;;;23.90;30.95;97420.66;5052570;28;20063;-63
2023/01/04 07:46:57;;;;;;;7.53;5.07;;;;;;;24.57;30.05;97424.28;5052643;28;20056;-63
2023/01/04 07:49:26;;;;;;;6.60;4.82;;;;;;;24.99;29.54;97425.38;5052642;28;20409;-65
2023/01/04 07:51:54;;;;;;;5.38;4.40;;;;;;;24.94;29.08;97423.09;5052571;28;20084;-64
2023/01/04 07:54:22;;;;;;;5.65;4.72;;;;;;;24.95;29.20;97430.13;5052546;28;20045;-63
2023/01/04 07:56:50;;;;;;;7.90;5.85;;;;;;;24.69;29.71;97435.78;5052491;28;20585;-62
2023/01/04 07:59:19;;;;;;;7.65;5.80;;;;;;;24.35;30.77;97434.03;5052635;28;20045;-65
2023/01/04 08:01:47;;;;;;;7.32;4.85;;;;;;;24.46;31.20;97435.84;5052260;28;20045;-64
2023/01/04 08:04:15;;;;;;;6.15;5.38;;;;;;;24.61;30.75;97432.88;5051926;28;20482;-65
2023/01/04 08:06:46;;;;;;;6.72;5.55;;;;;;;25.18;30.04;97438.06;5052433;28;20060;-64
2023/01/04 08:09:14;;;;;;;7.43;5.32;;;;;;;25.47;29.66;97439.25;5052245;28;20076;-61
2023/01/04 08:11:41;;;;;;;6.90;4.70;;;;;;;25.70;29.08;97439.97;5052289;28;20085;-65
2023/01/04 08:14:08;;;;;;;5.88;4.72;;;;;;;26.11;28.80;97440.03;5052340;28;20056;-65
2023/01/04 08:16:38;;;;;;;9.52;6.00;;;;;;;26.04;29.33;97443.38;5052242;28;20045;-61
2023/01/04 08:19:08;;;;;;;9.32;5.40;;;;;;;26.02;28.83;97440.84;5052056;28;20124;-64
2023/01/04 08:21:36;;;;;;;6.93;4.80;;;;;;;26.03;28.85;97444.38;5052068;28;20048;-63
2023/01/04 08:24:05;;;;;;;8.27;5.43;;;;;;;26.12;28.63;97452.44;5051972;28;20092;-62
2023/01/04 08:26:33;;;;;;;6.93;5.22;;;;;;;26.77;27.45;97446.84;5051989;28;20049;-64
2023/01/04 08:29:00;;;;;;;7.20;5.55;;;;;;;27.03;26.94;97455.22;5051862;28;20098;-65
2023/01/04 08:31:30;;;;;;;7.22;5.45;;;;;;;26.99;26.72;97448.44;5051921;28;20128;-66
2023/01/04 08:33:58;;;;;;;8.45;5.32;;;;;;;27.10;26.50;97444.78;5051883;28;20049;-63
2023/01/04 08:36:27;;;;;;;8.70;5.40;;;;;;;27.10;26.45;97445.66;5051790;28;20118;-65
2023/01/04 08:38:56;;;;;;;8.57;5.43;;;;;;;26.83;26.99;97439.09;5051736;28;20045;-64
2023/01/04 08:41:24;;;;;;;8.27;5.40;;;;;;;25.80;28.36;97439.19;5051505;28;20047;-65
2023/01/04 08:43:51;;;;;;;8.70;5.95;;;;;;;25.05;29.70;97440.06;5051610;28;20053;-65
2023/01/04 08:46:19;;;;;;;10.70;5.82;;;;;;;24.66;29.74;97448.56;5051640;28;20061;-63
2023/01/04 08:48:46;;;;;;;8.48;6.13;;;;;;;23.82;31.17;97437.28;5051735;28;20113;-65
2023/01/04 08:51:16;;;;;;;8.52;6.45;;;;;;;23.45;31.71;97435.66;5051529;28;20128;-64
2023/01/04 08:53:43;;;;;;;;;;;;;;;22.93;32.21;97442.13;5052157;28;20045;-63
2023/01/04 08:56:11;;;;;;;7.90;6.53;;;;;;;22.19;33.78;97441.16;5051650;28;20411;-62
2023/01/04 08:58:40;;;;;;;8.43;6.85;;;;;;;21.46;34.88;97436.41;5051466;28;20525;-61
2023/01/04 09:01:09;;;;;;;7.90;6.50;;;;;;;20.55;37.07;97445.91;5051522;28;20045;-65
2023/01/04 09:03:37;;;;;;;8.82;6.95;;;;;;;19.50;38.01;97427.56;5051369;28;20057;-63
2023/01/04 09:06:05;;;;;;;10.93;7.82;;;;;;;18.78;39.09;97429.88;5051350;28;20053;-65
2023/01/04 09:08:34;;;;;;;12.20;7.75;;;;;;;18.40;40.82;97424.97;5051310;28;20074;-63
2023/01/04 09:11:05;;;;;;;8.98;6.95;;;;;;;18.24;41.27;97419.69;5051378;28;20076;-63
2023/01/04 09:13:33;;;;;;;12.45;7.40;;;;;;;17.79;42.12;97431.69;5051238;28;20055;-61
2023/01/04 09:16:08;;;;;;;8.88;6.68;;;;;;;17.08;43.42;97432.72;5050121;28;20049;-63
2023/01/04 09:18:35;;;;;;;8.63;7.30;;;;;;;16.46;45.21;97428.63;5051195;28;20053;-61
2023/01/04 09:21:06;;;;;;;12.00;7.55;;;;;;;15.95;46.02;97423.91;5051055;28;20048;-61
2023/01/04 09:23:34;;;;;;;8.18;6.82;;;;;;;15.77;46.84;97418.53;5050955;28;20056;-61
2023/01/04 09:26:05;;;;;;;11.10;7.03;;;;;;;15.65;47.84;97412.03;5051047;28;20098;-60
2023/01/04 09:28:33;;;;;;;13.10;7.38;;;;;;;15.47;48.69;97411.09;5050990;28;20045;-62
2023/01/04 09:31:07;;;;;;;11.50;7.00;;;;;;;15.03;49.40;97405.88;5050913;28;20045;-64
2023/01/04 09:33:35;;;;;;;11.27;7.78;;;;;;;14.97;50.61;97402.66;5050881;28;20490;-62
2023/01/04 09:36:03;;;;;;;12.93;8.25;;;;;;;14.91;50.56;97401.13;5050730;28;20489;-62
2023/01/04 09:38:30;;;;;;;12.25;8.35;;;;;;;14.88;50.53;97396.00;5050811;28;20056;-63
2023/01/04 09:41:04;;;;;;;11.25;7.25;;;;;;;14.76;51.40;97402.59;5050778;28;20071;-66
2023/01/04 09:43:40;;;;;;;11.57;7.70;;;;;;;14.64;51.45;97401.31;5050527;28;20494;-64
2023/01/04 09:46:14;;;;;;;12.60;7.35;;;;;;;14.74;50.80;97404.44;5050836;28;20045;-61
2023/01/04 09:48:44;;;;;;;10.15;6.47;;;;;;;14.95;49.77;97399.22;5050683;28;20053;-61
2023/01/04 09:51:16;;;;;;;9.00;6.80;;;;;;;14.99;50.49;97403.44;5050657;28;20535;-64
2023/01/04 09:53:47;;;;;;;10.38;7.95;;;;;;;14.78;50.77;97395.53;5050710;28;20049;-62
2023/01/04 09:56:20;;;;;;;;;;;;;;;14.69;50.83;97398.50;5050993;28;20474;-64
2023/01/04 09:58:48;;;;;;;10.85;6.68;;;;;;;14.69;50.62;97393.25;5050745;28;19927;-64
2023/01/04 10:01:22;;;;;;;15.20;7.10;;;;;;;14.59;52.31;97392.75;5050418;28;20063;-63
2023/01/04 10:03:59;;;;;;;11.35;7.22;;;;;;;14.75;51.52;97390.34;5050412;28;20482;-66
2023/01/04 10:06:26;;;;;;;7.53;6.10;;;;;;;14.60;51.53;97383.94;5050430;28;20128;-64
2023/01/04 10:08:59;;;;;;;15.57;7.55;;;;;;;14.60;51.80;97384.78;5050320;28;20573;-63
2023/01/04 10:11:43;;;;;;;8.73;6.97;;;;;;;14.60;51.21;97381.31;5050267;28;20121;-64
2023/01/04 10:14:31;;;;;;;11.48;6.82;;;;;;;14.64;51.79;97380.25;5050365;28;20053;-65
2023/01/04 10:17:20;;;;;;;9.85;6.68;;;;;;;14.59;52.04;97372.53;5050352;28;20045;-64
2023/01/04 10:20:02;;;;;;;9.43;6.53;;;;;;;14.64;50.03;97380.25;5050330;28;20052;-62
2023/01/04 10:22:38;;;;;;;11.32;7.38;;;;;;;14.59;50.78;97374.31;5050129;28;20053;-62
2023/01/04 10:25:20;;;;;;;9.95;6.88;;;;;;;14.48;51.45;97380.03;5050266;28;20142;-62
2023/01/04 10:27:57;;;;;;;11.05;6.25;;;;;;;14.55;51.60;97375.38;5049942;28;20049;-65
2023/01/04 10:30:33;;;;;;;10.63;7.40;;;;;;;14.64;51.34;97373.22;5050190;28;20055;-63
2023/01/04 10:33:12;;;;;;;9.38;8.10;;;;;;;14.61;51.78;97370.72;5050065;28;20102;-64
2023/01/04 10:35:42;;;;;;;12.07;7.82;;;;;;;14.52;51.75;97364.06;5050105;28;20049;-66
2023/01/04 10:38:16;;;;;;;16.48;7.68;;;;;;;14.42;52.18;97362.69;5050042;28;20080;-66
2023/01/04 10:40:47;;;;;;;12.05;8.02;;;;;;;14.42;51.73;97367.94;5049936;28;20485;-62
2023/01/04 10:43:24;;;;;;;20.30;8.98;;;;;;;14.37;51.79;97359.41;5049638;28;20056;-63
2023/01/04 10:46:00;;;;;;;15.93;7.82;;;;;;;14.35;51.42;97362.09;5050046;28;20045;-63
2023/01/04 10:48:38;;;;;;;9.82;6.78;;;;;;;14.30;52.02;97364.03;5049904;28;20098;-63
2023/01/04 10:51:06;;;;;;;12.48;7.20;;;;;;;14.28;52.09;97364.13;5050052;28;20056;-65
2023/01/04 10:53:40;;;;;;;12.18;6.85;;;;;;;14.29;52.35;97362.34;5049880;28;20105;-66
2023/01/04 10:56:15;;;;;;;17.17;7.47;;;;;;;14.05;52.66;97354.50;5049915;28;20062;-64
2023/01/04 10:58:47;;;;;;;12.93;6.45;;;;;;;14.07;52.32;97352.69;5049776;28;20159;-62
2023/01/04 11:01:19;;;;;;;8.23;6.00;;;;;;;14.04;52.95;97350.16;5049702;28;20105;-65
2023/01/04 11:03:53;;;;;;;11.80;6.82;;;;;;;14.12;52.79;97350.69;5049644;28;20129;-63
2023/01/04 11:06:24;;;;;;;10.23;7.47;;;;;;;14.25;52.92;97342.34;5049719;28;20053;-63
2023/01/04 11:08:57;;;;;;;9.75;6.18;;;;;;;14.14;52.56;97346.25;5049620;28;20049;-63
2023/01/04 11:11:27;;;;;;;8.57;6.90;;;;;;;14.06;52.37;97342.22;5049621;28;20045;-65
2023/01/04 11:13:55;;;;;;;13.60;7.90;;;;;;;13.96;53.16;97344.31;5049702;28;20049;-64
2023/01/04 11:16:23;;;;;;;13.15;7.10;;;;;;;14.05;52.84;97343.13;5049512;28;20387;-65
2023/01/04 11:18:52;;;;;;;11.32;6.70;;;;;;;14.12;52.43;97339.34;5049663;28;20100;-62
2023/01/04 11:21:26;;;;;;;9.05;6.88;;;;;;;14.10;52.86;97341.16;5049540;28;20059;-66
2023/01/04 11:23:56;;;;;;;11.23;7.50;;;;;;;14.13;52.43;97346.31;5049424;28;20044;-62
2023/01/04 11:26:31;;;;;;;13.27;7.90;;;;;;;14.10;52.48;97339.41;5049357;28;20094;-63
2023/01/04 11:29:05;;;;;;;9.80;7.75;;;;;;;14.07;52.44;97338.66;5049535;28;20053;-65
2023/01/04 11:31:44;;;;;;;7.43;6.63;;;;;;;14.13;52.59;97338.41;5049429;28;20053;-66
2023/01/04 11:34:13;;;;;;;11.82;6.70;;;;;;;13.97;52.67;97338.19;5049463;28;20045;-66
2023/01/04 11:36:43;;;;;;;12.10;7.60;;;;;;;14.02;52.78;97339.69;5049206;28;20049;-63
2023/01/04 11:39:19;;;;;;;12.60;7.55;;;;;;;14.07;53.10;97343.91;5050457;28;20399;-63
2023/01/04 11:41:56;;;;;;;10.40;7.00;;;;;;;14.15;52.43;97350.59;5052557;28;20402;-62
2023/01/04 11:44:24;;;;;;;10.07;6.78;;;;;;;14.19;52.35;97347.84;5052565;28;20110;-64
2023/01/04 11:47:06;;;;;;;13.80;7.50;;;;;;;14.21;52.23;97346.84;5052588;28;20084;-64
2023/01/04 11:49:36;;;;;;;9.82;7.18;;;;;;;14.06;52.36;97344.84;5052601;28;20051;-65
2023/01/04 11:52:04;;;;;;;14.90;8.57;;;;;;;13.90;52.81;97348.06;5052503;28;20045;-64
2023/01/04 11:54:31;;;;;;;11.40;7.15;;;;;;;13.82;52.91;97348.34;5052601;28;20374;-66
2023/01/04 11:57:02;;;;;;;9.55;7.78;;;;;;;13.71;53.24;97350.53;5052823;28;20051;-62
2023/01/04 11:59:30;;;;;;;14.88;9.13;;;;;;;13.52;53.60;97346.81;5052582;28;20137;-62
2023/01/04 12:02:19;;;;;;;16.45;8.63;;;;;;;13.42;54.43;97344.59;5052426;28;20049;-63
2023/01/04 12:04:49;;;;;;;11.70;8.80;;;;;;;13.31;54.26;97344.97;5052266;28;20055;-65
2023/01/04 12:07:31;;;;;;;12.85;8.82;;;;;;;13.30;54.46;97345.88;5052393;28;20072;-66
2023/01/04 12:10:00;;;;;;;11.98;8.50;;;;;;;13.12;54.61;97341.22;5052365;28;20049;-64
2023/01/04 12:12:30;;;;;;;11.63;8.45;;;;;;;12.97;54.81;97334.75;5052367;28;20059;-62
2023/01/04 12:15:02;;;;;;;7.27;5.77;;;;;;;12.94;55.25;97336.63;5052231;28;20386;-65
2023/01/04 12:17:37;;;;;;;14.32;8.13;;;;;;;12.83;55.64;97332.63;5052187;28;20056;-65
2023/01/04 12:20:17;;;;;;;13.10;8.45;;;;;;;12.69;55.12;97330.44;5052266;28;20124;-63
2023/01/04 12:22:44;;;;;;;18.20;9.73;;;;;;;12.66;55.22;97332.31;5052096;28;20444;-63
2023/01/04 12:25:28;;;;;;;15.13;9.90;;;;;;;12.41;55.19;97331.38;5052120;28;20053;-63
2023/01/04 12:27:56;;;;;;;13.98;10.13;;;;;;;12.19;55.95;97345.16;5052056;28;20106;-64
2023/01/04 12:30:36;;;;;;;15.45;10.77;;;;;;;12.06;56.42;97341.19;5051966;28;20044;-65
2023/01/04 12:33:37;;;;;;;17.92;11.82;;;;;;;12.00;56.71;97348.34;5052029;28;20049;-62
2023/01/04 12:36:09;;;;;;;22.63;11.80;;;;;;;11.93;56.75;97346.84;5051990;28;20387;-65